TimeCDT,TemperatureF,Dew PointF,Humidity,Sea Level PressureIn,VisibilityMPH,Wind Direction,Wind SpeedMPH,Gust SpeedMPH,PrecipitationIn,Events,Conditions,WindDirDegrees,DateUTC
12:35 AM,44.6,28.4,53,30.24,10.0,ESE,5.8,-,N/A,,Clear,110,2012-10-13 05:35:00
12:55 AM,44.6,28.4,53,30.24,10.0,ESE,4.6,-,N/A,,Clear,120,2012-10-13 05:55:00
1:15 AM,44.6,28.4,53,30.23,10.0,ESE,8.1,-,N/A,,Clear,110,2012-10-13 06:15:00
1:35 AM,45.5,28.2,51,30.24,10.0,ESE,6.9,-,N/A,,Scattered Clouds,120,2012-10-13 06:35:00
1:55 AM,46.4,28.4,50,30.23,10.0,ESE,6.9,-,N/A,,Overcast,120,2012-10-13 06:55:00
2:15 AM,46.4,28.8,50,30.23,10.0,SE,3.5,-,N/A,,Overcast,130,2012-10-13 07:15:00
2:35 AM,45.7,31.1,57,30.21,10.0,SE,5.8,-,N/A,Rain,Light Rain,130,2012-10-13 07:35:00
2:55 AM,46.4,30.7,54,30.19,10.0,ESE,5.8,-,N/A,,Mostly Cloudy,110,2012-10-13 07:55:00
3:15 AM,46.4,31.5,56,30.18,10.0,ESE,5.8,-,N/A,Rain,Light Rain,120,2012-10-13 08:15:00
3:35 AM,46.4,32.0,57,30.17,10.0,SE,5.8,-,N/A,,Light Drizzle,130,2012-10-13 08:35:00
3:55 AM,46.4,33.4,61,30.14,10.0,ESE,6.9,-,N/A,Rain,Light Rain,120,2012-10-13 08:55:00
4:15 AM,46.2,34.3,63,30.13,10.0,ESE,3.5,-,N/A,,Mostly Cloudy,120,2012-10-13 09:15:00
4:35 AM,47.1,35.4,64,30.12,10.0,SE,8.1,-,N/A,,Scattered Clouds,130,2012-10-13 09:35:00
4:55 AM,48.2,35.6,62,30.11,10.0,SSE,6.9,-,N/A,,Scattered Clouds,150,2012-10-13 09:55:00
5:15 AM,50.0,37.4,62,30.11,10.0,SE,10.4,-,N/A,,Mostly Cloudy,140,2012-10-13 10:15:00
5:35 AM,50.0,37.2,62,30.12,10.0,SSE,9.2,17.3,N/A,,Overcast,150,2012-10-13 10:35:00
5:55 AM,50.0,37.8,63,30.13,10.0,SE,6.9,-,N/A,,Overcast,140,2012-10-13 10:55:00
6:15 AM,50.4,38.7,64,30.11,10.0,SE,8.1,-,N/A,,Overcast,140,2012-10-13 11:15:00
6:35 AM,50.2,39.0,66,30.11,10.0,SE,6.9,-,N/A,,Overcast,140,2012-10-13 11:35:00
6:55 AM,50.4,40.3,68,30.10,10.0,SE,5.8,-,N/A,,Mostly Cloudy,140,2012-10-13 11:55:00
7:15 AM,50.9,41.5,70,30.08,10.0,SE,8.1,-,N/A,,Mostly Cloudy,140,2012-10-13 12:15:00
7:55 AM,52.2,43.2,71,30.08,10.0,SSE,9.2,-,N/A,,Overcast,150,2012-10-13 12:55:00
8:15 AM,52.5,44.1,73,30.08,10.0,SE,5.8,-,N/A,Rain,Light Rain,140,2012-10-13 13:15:00
8:35 AM,51.8,44.6,76,30.06,10.0,SE,11.5,-,N/A,Rain,Rain,140,2012-10-13 13:35:00
8:55 AM,52.9,45.7,77,30.03,10.0,SSE,9.2,-,N/A,,Mostly Cloudy,150,2012-10-13 13:55:00
9:15 AM,53.6,46.4,77,30.04,10.0,SSE,9.2,17.3,N/A,,Mostly Cloudy,150,2012-10-13 14:15:00
9:35 AM,53.6,46.4,77,30.03,10.0,SE,11.5,16.1,N/A,,Mostly Cloudy,140,2012-10-13 14:35:00
9:55 AM,53.6,46.6,77,30.04,10.0,SSE,11.5,18.4,N/A,,Mostly Cloudy,160,2012-10-13 14:55:00
10:15 AM,52.9,48.6,85,30.04,7.0,South,9.2,-,0.01,Rain,Rain,170,2012-10-13 15:15:00
10:35 AM,51.8,50.0,94,30.03,4.0,South,6.9,-,N/A,Rain,Heavy Rain,170,2012-10-13 15:35:00
10:55 AM,52.2,50.5,94,30.03,4.0,South,5.8,-,0.09,Rain,Rain,180,2012-10-13 15:55:00
11:15 AM,52.7,51.1,94,30.02,4.0,South,6.9,-,0.02,Rain-Thunderstorm,Rain,170,2012-10-13 16:15:00
11:35 AM,52.9,51.8,96,30.01,4.0,South,8.1,-,0.04,Rain,Rain,170,2012-10-13 16:35:00
11:55 AM,53.8,52.9,97,29.99,4.0,SSE,6.9,-,0.05,Rain,Rain,160,2012-10-13 16:55:00
12:35 PM,55.0,54.1,97,29.95,4.0,SSE,8.1,-,0.06,Rain,Rain,160,2012-10-13 17:35:00
12:55 PM,55.6,54.7,97,29.94,5.0,South,8.1,-,0.08,Rain,Light Rain,170,2012-10-13 17:55:00
1:15 PM,56.3,55.4,97,29.95,7.0,South,8.1,-,N/A,,Drizzle,180,2012-10-13 18:15:00
1:35 PM,57.2,56.3,97,29.92,5.0,South,10.4,20.7,0.02,Rain,Light Rain,170,2012-10-13 18:35:00
1:55 PM,58.1,57.2,97,29.91,7.0,South,10.4,16.1,0.02,Rain-Thunderstorm,Rain,170,2012-10-13 18:55:00
2:15 PM,59.0,57.9,96,29.89,7.0,South,12.7,17.3,N/A,,Light Drizzle,170,2012-10-13 19:15:00
2:35 PM,59.9,58.6,96,29.89,10.0,South,10.4,-,N/A,,Overcast,170,2012-10-13 19:35:00
2:55 PM,60.8,59.0,94,29.88,10.0,South,10.4,-,N/A,,Overcast,170,2012-10-13 19:55:00
3:35 PM,61.7,59.9,94,29.86,10.0,South,11.5,16.1,N/A,,Overcast,170,2012-10-13 20:35:00
3:55 PM,61.9,59.9,93,29.86,10.0,South,12.7,19.6,N/A,,Overcast,170,2012-10-13 20:55:00
4:15 PM,61.9,59.9,93,29.86,7.0,South,11.5,-,N/A,,Overcast,170,2012-10-13 21:15:00
4:35 PM,62.6,60.8,94,29.86,5.0,South,10.4,21.9,N/A,,Overcast,170,2012-10-13 21:35:00
4:55 PM,62.6,60.3,92,29.85,5.0,South,13.8,18.4,N/A,,Overcast,170,2012-10-13 21:55:00
5:15 PM,62.6,60.8,94,29.84,5.0,SSE,11.5,20.7,N/A,,Mostly Cloudy,160,2012-10-13 22:15:00
5:35 PM,63.1,60.8,92,29.83,4.0,SSE,11.5,17.3,N/A,,Scattered Clouds,160,2012-10-13 22:35:00
5:55 PM,63.0,61.0,93,29.85,4.0,South,8.1,17.3,N/A,,Scattered Clouds,180,2012-10-13 22:55:00
6:15 PM,63.0,61.0,93,29.86,4.0,South,6.9,-,N/A,,Scattered Clouds,180,2012-10-13 23:15:00
6:35 PM,63.1,61.2,93,29.85,3.0,South,4.6,-,N/A,,Mist,170,2012-10-13 23:35:00
6:55 PM,63.1,61.2,93,29.85,3.0,South,4.6,-,N/A,,Mist,180,2012-10-13 23:55:00
7:15 PM,63.1,61.5,94,29.85,3.0,South,3.5,-,N/A,,Mist,170,2012-10-14 00:15:00
7:35 PM,63.5,61.7,94,29.85,3.0,South,3.5,-,N/A,,Overcast,180,2012-10-14 00:35:00
7:55 PM,64.4,62.6,94,29.85,3.0,South,4.6,-,N/A,,Overcast,170,2012-10-14 00:55:00
8:15 PM,64.4,62.2,93,29.85,4.0,South,6.9,-,N/A,,Overcast,170,2012-10-14 01:15:00
8:35 PM,64.4,62.6,94,29.84,4.0,SSE,8.1,-,N/A,,Mostly Cloudy,160,2012-10-14 01:35:00
8:55 PM,66.2,62.6,88,29.84,5.0,South,8.1,-,N/A,,Mostly Cloudy,170,2012-10-14 01:55:00
9:15 PM,66.2,62.6,88,29.83,7.0,South,11.5,17.3,N/A,,Overcast,170,2012-10-14 02:15:00
9:35 PM,66.2,62.6,88,29.83,7.0,South,15.0,18.4,N/A,,Mostly Cloudy,170,2012-10-14 02:35:00
9:55 PM,66.2,62.1,86,29.82,7.0,South,11.5,18.4,N/A,,Scattered Clouds,170,2012-10-14 02:55:00
10:15 PM,66.2,62.1,86,29.81,7.0,South,11.5,19.6,N/A,,Clear,170,2012-10-14 03:15:00
10:35 PM,66.2,62.1,86,29.80,7.0,South,11.5,-,N/A,,Clear,180,2012-10-14 03:35:00
10:55 PM,66.2,61.9,86,29.79,7.0,South,11.5,-,N/A,,Clear,180,2012-10-14 03:55:00
11:15 PM,68.0,62.6,83,29.81,7.0,South,12.7,23.0,N/A,,Mostly Cloudy,180,2012-10-14 04:15:00
11:35 PM,66.2,62.6,88,29.81,7.0,South,11.5,18.4,N/A,,Overcast,180,2012-10-14 04:35:00
11:55 PM,66.2,62.6,88,29.81,5.0,South,6.9,-,N/A,,Overcast,190,2012-10-14 04:55:00